Time;durP1;ratioP1;P1;durP2;ratioP2;P2;SDS_P1;SDS_P2;PMS_P1;PMS_P2;Temp;Humidity;BMP_temperature;BMP_pressure;BME280_temperature;BME280_humidity;BME280_pressure;Samples;Min_cycle;Max_cycle;Signal;HPM_P1;HPM_P2
2024/01/22 00:00:28;;;;;;;54.67;23.75;;;-6.80;99.90;;;;;;4210754;28;20377;-60
2024/01/22 00:02:29;;;;;;;59.15;25.48;;;-6.90;99.90;;;;;;4210156;28;20032;-60
2024/01/22 00:04:32;;;;;;;61.22;28.27;;;-7.00;99.90;;;;;;4210720;28;20145;-60
2024/01/22 00:06:37;;;;;;;66.15;25.98;;;-7.10;99.90;;;;;;4210104;28;20086;-61
2024/01/22 00:08:39;;;;;;;58.60;25.30;;;-7.20;99.90;;;;;;4208883;28;20036;-60
2024/01/22 00:10:40;;;;;;;63.33;27.50;;;-7.20;99.90;;;;;;4209722;28;20422;-59
2024/01/22 00:12:41;;;;;;;68.70;30.02;;;-7.30;99.90;;;;;;4209332;28;20036;-60
2024/01/22 00:14:42;;;;;;;66.65;28.10;;;-7.30;99.90;;;;;;4209937;28;20481;-60
2024/01/22 00:16:44;;;;;;;64.35;27.35;;;-7.20;99.90;;;;;;4210451;28;20125;-61
2024/01/22 00:18:45;;;;;;;62.88;26.65;;;-7.20;99.90;;;;;;4209731;28;20016;-61
2024/01/22 00:20:46;;;;;;;60.72;28.30;;;-7.20;99.90;;;;;;4209749;28;20134;-59
2024/01/22 00:22:47;;;;;;;62.38;26.42;;;-7.20;99.90;;;;;;4208359;28;20104;-61
2024/01/22 00:24:48;;;;;;;66.38;30.42;;;-7.20;99.90;;;;;;4208989;28;20151;-60
2024/01/22 00:26:49;;;;;;;57.80;26.58;;;-7.20;99.90;;;;;;4209648;28;20040;-60
2024/01/22 00:28:51;;;;;;;59.88;25.83;;;-7.10;99.90;;;;;;4209952;28;20450;-60
2024/01/22 00:30:52;;;;;;;61.63;27.42;;;-7.10;99.90;;;;;;4193480;28;20492;-58
2024/01/22 00:32:53;;;;;;;54.20;25.35;;;-7.20;99.90;;;;;;4193031;28;20020;-59
2024/01/22 00:34:54;;;;;;;59.80;27.30;;;-7.20;99.90;;;;;;4193626;28;20029;-60
2024/01/22 00:36:55;;;;;;;56.92;25.75;;;-7.10;99.90;;;;;;4193164;28;20024;-59
2024/01/22 00:38:56;;;;;;;68.85;29.70;;;-7.20;99.90;;;;;;4193696;28;20020;-58
2024/01/22 00:40:58;;;;;;;66.20;28.25;;;-7.20;99.90;;;;;;4192956;28;20067;-60
2024/01/22 00:42:59;;;;;;;65.40;26.90;;;-7.20;99.90;;;;;;4209507;28;20044;-59
2024/01/22 00:45:00;;;;;;;68.28;28.98;;;-7.20;99.90;;;;;;4209160;28;20036;-61
2024/01/22 00:47:01;;;;;;;60.78;27.45;;;-7.20;99.90;;;;;;4209683;28;20036;-60
2024/01/22 00:49:02;;;;;;;61.55;27.63;;;-7.20;99.90;;;;;;4209879;28;20537;-58
2024/01/22 00:51:04;;;;;;;66.80;28.77;;;-7.20;99.90;;;;;;4209766;28;20070;-61
2024/01/22 00:53:05;;;;;;;67.45;30.67;;;-7.20;99.90;;;;;;4209688;28;20071;-60
2024/01/22 00:55:06;;;;;;;61.30;26.27;;;-7.20;99.90;;;;;;4209726;28;20946;-60
2024/01/22 00:57:08;;;;;;;66.22;27.80;;;-7.20;99.90;;;;;;4209708;28;20093;-62
2024/01/22 00:59:09;;;;;;;74.43;30.23;;;-7.10;99.90;;;;;;4209623;28;20102;-61
2024/01/22 01:01:10;;;;;;;69.90;31.00;;;-7.20;99.90;;;;;;4209526;28;20472;-61
2024/01/22 01:03:11;;;;;;;75.22;32.97;;;-7.20;99.90;;;;;;4209184;28;20056;-61
2024/01/22 01:05:12;;;;;;;72.00;31.88;;;-7.10;99.90;;;;;;4210117;28;20125;-61
2024/01/22 01:07:13;;;;;;;69.13;30.70;;;-7.10;99.90;;;;;;4209549;28;20418;-62
2024/01/22 01:09:15;;;;;;;73.60;30.15;;;-7.00;99.90;;;;;;4210077;28;21454;-61
2024/01/22 01:11:16;;;;;;;74.30;32.10;;;-7.00;99.90;;;;;;4208785;28;20093;-61
2024/01/22 01:13:18;;;;;;;65.78;30.23;;;-7.00;99.90;;;;;;4210051;28;20097;-61
2024/01/22 01:15:22;;;;;;;66.97;29.98;;;-7.00;99.90;;;;;;4209088;28;20041;-60
2024/01/22 01:17:24;;;;;;;75.20;30.27;;;-7.00;99.90;;;;;;4209442;28;20101;-60
2024/01/22 01:19:25;;;;;;;71.13;31.25;;;-7.00;99.90;;;;;;4207553;28;20036;-57
2024/01/22 01:21:27;;;;;;;73.05;31.05;;;-7.00;99.90;;;;;;4209517;28;20036;-59
2024/01/22 01:23:28;;;;;;;67.75;29.48;;;-7.00;99.90;;;;;;4210504;28;20441;-57
2024/01/22 01:25:29;;;;;;;71.97;33.00;;;-7.00;99.90;;;;;;4212908;28;20426;-59
2024/01/22 01:27:30;;;;;;;70.70;30.42;;;-7.00;99.90;;;;;;4212315;28;20043;-60
2024/01/22 01:29:31;;;;;;;73.10;33.78;;;-7.00;99.90;;;;;;4212501;28;20495;-61
2024/01/22 01:31:32;;;;;;;72.03;31.73;;;-7.00;99.90;;;;;;4212122;28;20085;-60
2024/01/22 01:33:34;;;;;;;80.15;34.97;;;-7.10;99.90;;;;;;4210792;28;20024;-59
2024/01/22 01:35:35;;;;;;;79.03;34.05;;;-7.10;99.90;;;;;;4212769;28;20032;-60
2024/01/22 01:37:36;;;;;;;75.30;33.75;;;-7.10;99.90;;;;;;4212599;28;20092;-60
2024/01/22 01:39:37;;;;;;;74.15;32.95;;;-7.10;99.90;;;;;;4213044;28;20078;-61
2024/01/22 01:41:39;;;;;;;79.97;35.17;;;-7.10;99.90;;;;;;4212048;28;20561;-60
2024/01/22 01:43:40;;;;;;;71.85;34.10;;;-7.10;99.90;;;;;;4212802;28;20040;-60
2024/01/22 01:45:41;;;;;;;80.88;34.67;;;-7.10;99.90;;;;;;4212164;28;20089;-60
2024/01/22 01:47:47;;;;;;;73.03;32.08;;;-7.10;99.90;;;;;;4212740;28;20040;-59
2024/01/22 01:49:50;;;;;;;71.97;31.45;;;-7.10;99.90;;;;;;4212249;28;20020;-61
2024/01/22 01:51:51;;;;;;;71.35;30.25;;;-7.20;99.90;;;;;;4212588;28;20040;-60
2024/01/22 01:53:54;;;;;;;64.07;29.60;;;-7.20;99.90;;;;;;4212135;28;20065;-61
2024/01/22 01:55:57;;;;;;;65.28;28.67;;;-7.30;99.90;;;;;;4212003;28;20044;-57
2024/01/22 01:58:01;;;;;;;61.28;28.77;;;-7.40;99.90;;;;;;4212245;28;20414;-61
2024/01/22 02:00:04;;;;;;;69.75;29.83;;;-7.40;99.90;;;;;;4212489;28;20078;-61
2024/01/22 02:02:06;;;;;;;68.75;28.42;;;-7.40;99.90;;;;;;4212315;28;20024;-61
2024/01/22 02:04:07;;;;;;;69.30;28.95;;;-7.40;99.90;;;;;;4212105;28;20036;-61
2024/01/22 02:06:08;;;;;;;66.25;28.73;;;-7.40;99.90;;;;;;4212600;28;20074;-61
2024/01/22 02:08:09;;;;;;;66.28;28.83;;;-7.50;99.90;;;;;;4211608;28;20048;-61
2024/01/22 02:10:12;;;;;;;67.55;27.92;;;-7.50;99.90;;;;;;4212335;28;20034;-59
2024/01/22 02:12:18;;;;;;;72.28;29.13;;;-7.50;99.90;;;;;;4211765;28;20016;-61
2024/01/22 02:14:19;;;;;;;64.03;28.02;;;-7.50;99.90;;;;;;4212505;28;20024;-60
2024/01/22 02:16:21;;;;;;;66.43;27.50;;;-7.50;99.90;;;;;;4211324;28;20040;-58
2024/01/22 02:18:22;;;;;;;63.03;28.23;;;-7.60;99.90;;;;;;4212554;28;20032;-55
2024/01/22 02:20:23;;;;;;;65.60;29.67;;;-7.60;99.90;;;;;;4211464;28;20438;-61
2024/01/22 02:22:24;;;;;;;60.40;28.23;;;-7.60;99.90;;;;;;4210494;28;20040;-61
2024/01/22 02:24:25;;;;;;;61.97;26.73;;;-7.70;99.90;;;;;;4211773;28;20074;-60
2024/01/22 02:26:26;;;;;;;64.55;27.35;;;-7.80;99.90;;;;;;4211608;28;20473;-61
2024/01/22 02:28:28;;;;;;;65.43;27.83;;;-7.80;99.90;;;;;;4211654;28;20529;-61
2024/01/22 02:30:29;;;;;;;64.13;26.95;;;-7.90;99.90;;;;;;4211871;28;20074;-61
2024/01/22 02:32:30;;;;;;;62.40;26.63;;;-7.90;99.90;;;;;;4211705;28;20032;-60
2024/01/22 02:34:31;;;;;;;68.72;30.33;;;-8.00;99.90;;;;;;4211084;28;20468;-59
2024/01/22 02:36:32;;;;;;;63.38;27.67;;;-7.90;99.90;;;;;;4211321;28;20512;-60
2024/01/22 02:38:33;;;;;;;63.30;27.38;;;-7.90;99.90;;;;;;4211218;28;20450;-60
2024/01/22 02:40:35;;;;;;;64.38;27.67;;;-7.90;99.90;;;;;;4211665;28;20085;-61
2024/01/22 02:42:36;;;;;;;69.60;29.35;;;-7.90;99.90;;;;;;4210524;28;20040;-61
2024/01/22 02:44:37;;;;;;;68.88;29.02;;;-7.90;99.90;;;;;;4212117;28;20032;-60
2024/01/22 02:46:38;;;;;;;63.15;28.55;;;-7.90;99.90;;;;;;4211217;28;20054;-61
2024/01/22 02:48:39;;;;;;;63.97;28.45;;;-7.90;99.90;;;;;;4211572;28;20040;-61
2024/01/22 02:50:41;;;;;;;64.47;29.90;;;-7.90;99.90;;;;;;4210668;28;20032;-58
2024/01/22 02:52:42;;;;;;;70.35;28.98;;;-7.90;99.90;;;;;;4211707;28;20081;-60
2024/01/22 02:54:43;;;;;;;60.58;29.17;;;-8.00;99.90;;;;;;4211219;28;20028;-59
2024/01/22 02:56:44;;;;;;;64.32;29.10;;;-7.90;99.90;;;;;;4211216;28;20442;-61
2024/01/22 02:58:46;;;;;;;69.38;29.05;;;-7.90;99.90;;;;;;4211061;28;20020;-60
2024/01/22 03:00:47;;;;;;;64.57;28.00;;;-7.80;99.90;;;;;;4211047;28;20036;-59
2024/01/22 03:02:48;;;;;;;66.85;28.20;;;-7.80;99.90;;;;;;4210955;28;20124;-58
2024/01/22 03:04:49;;;;;;;68.53;28.70;;;-7.80;99.90;;;;;;4211402;28;20362;-61
2024/01/22 03:06:50;;;;;;;60.00;26.48;;;-7.80;99.90;;;;;;4211867;28;20074;-60
2024/01/22 03:08:52;;;;;;;69.85;28.48;;;-7.80;99.90;;;;;;4210843;28;20568;-60
2024/01/22 03:10:53;;;;;;;63.60;27.73;;;-7.80;99.90;;;;;;4211351;28;20036;-61
2024/01/22 03:12:54;;;;;;;66.13;27.20;;;-7.80;99.90;;;;;;4210967;28;20033;-61
2024/01/22 03:14:55;;;;;;;58.03;27.20;;;-7.80;99.90;;;;;;4211576;28;20042;-57
2024/01/22 03:16:56;;;;;;;62.95;27.58;;;-7.80;99.90;;;;;;4210449;28;20077;-58
2024/01/22 03:18:58;;;;;;;65.60;25.38;;;-7.80;99.90;;;;;;4211470;28;20024;-59
2024/01/22 03:21:04;;;;;;;60.38;24.55;;;-7.80;99.90;;;;;;4210543;28;20365;-60
2024/01/22 03:23:05;;;;;;;58.60;24.00;;;-7.80;99.90;;;;;;4211253;28;20480;-59
2024/01/22 03:25:06;;;;;;;53.92;23.38;;;-7.90;99.90;;;;;;4210218;28;20089;-59
2024/01/22 03:27:07;;;;;;;54.30;22.90;;;-7.90;99.90;;;;;;4211380;28;20024;-59
2024/01/22 03:29:08;;;;;;;48.85;23.85;;;-7.90;99.90;;;;;;4210708;28;20043;-60
2024/01/22 03:31:23;;;;;;;60.63;23.98;;;-7.80;99.90;;;;;;4209059;28;20032;-59
2024/01/22 03:33:24;;;;;;;58.65;23.58;;;-7.80;99.90;;;;;;4210726;28;20445;-59
2024/01/22 03:35:25;;;;;;;54.63;22.25;;;-7.80;99.90;;;;;;4210055;28;20036;-61
2024/01/22 03:37:26;;;;;;;61.55;24.67;;;-7.90;99.90;;;;;;4210926;28;20102;-61
2024/01/22 03:39:28;;;;;;;55.88;24.10;;;-7.90;99.90;;;;;;4210718;28;20069;-61
2024/01/22 03:41:29;;;;;;;57.85;26.27;;;-7.90;99.90;;;;;;4210484;28;20027;-60
2024/01/22 03:43:30;;;;;;;53.83;24.17;;;-7.90;99.90;;;;;;4210300;28;20430;-60
2024/01/22 03:45:31;;;;;;;61.72;25.95;;;-7.90;99.90;;;;;;4210670;28;20418;-61
2024/01/22 03:47:32;;;;;;;53.35;25.42;;;-7.90;99.90;;;;;;4210416;28;20387;-61
2024/01/22 03:49:34;;;;;;;59.40;26.27;;;-8.00;99.90;;;;;;4210817;28;20032;-60
2024/01/22 03:51:35;;;;;;;64.30;27.83;;;-8.10;99.90;;;;;;4210089;28;20032;-60
2024/01/22 03:53:36;;;;;;;65.68;27.90;;;-8.10;99.90;;;;;;4210935;28;20032;-60
2024/01/22 03:55:37;;;;;;;68.07;28.05;;;-8.00;99.90;;;;;;4210128;28;20191;-60
2024/01/22 03:57:38;;;;;;;62.95;27.38;;;-8.00;99.90;;;;;;4210541;28;20032;-60
2024/01/22 03:59:41;;;;;;;69.50;29.38;;;-8.00;99.90;;;;;;4209960;28;20389;-60
2024/01/22 04:01:42;;;;;;;64.53;27.05;;;-8.00;99.90;;;;;;4210276;28;20031;-60
2024/01/22 04:03:43;;;;;;;60.08;28.88;;;-8.10;99.90;;;;;;4209484;28;20036;-59
2024/01/22 04:05:44;;;;;;;56.75;25.38;;;-8.20;99.90;;;;;;4209829;28;20081;-61
2024/01/22 04:07:46;;;;;;;59.25;28.95;;;-8.30;99.90;;;;;;4210222;28;20102;-59
2024/01/22 04:09:47;;;;;;;64.20;29.00;;;-8.40;99.90;;;;;;4210104;28;20472;-61
2024/01/22 04:11:49;;;;;;;85.63;31.98;;;-8.40;99.90;;;;;;4209638;28;20112;-60
2024/01/22 04:13:50;;;;;;;73.45;32.55;;;-8.50;99.90;;;;;;4209887;28;20036;-61
2024/01/22 04:15:54;;;;;;;72.85;30.52;;;-8.50;99.90;;;;;;4210167;28;20028;-59
2024/01/22 04:17:55;;;;;;;70.85;31.90;;;-8.50;99.90;;;;;;4209916;28;20105;-60
2024/01/22 04:19:56;;;;;;;69.28;30.55;;;-8.50;99.90;;;;;;4210419;28;20032;-60
2024/01/22 04:21:58;;;;;;;73.60;28.88;;;-8.50;99.90;;;;;;4208890;28;20032;-59
2024/01/22 04:23:59;;;;;;;87.43;33.65;;;-8.50;99.90;;;;;;4208399;28;20085;-58
2024/01/22 04:26:01;;;;;;;75.00;31.75;;;-8.50;99.90;;;;;;4209273;28;20028;-60
2024/01/22 04:28:03;;;;;;;72.53;31.05;;;-8.50;99.90;;;;;;4210005;28;20089;-60
2024/01/22 04:30:04;;;;;;;67.75;30.60;;;-8.40;99.90;;;;;;4209604;28;20385;-58
2024/01/22 04:32:06;;;;;;;77.63;32.13;;;-8.40;99.90;;;;;;4210188;28;20058;-60
2024/01/22 04:34:07;;;;;;;71.72;32.05;;;-8.50;99.90;;;;;;4209302;28;20430;-60
2024/01/22 04:36:09;;;;;;;78.40;32.45;;;-8.40;99.90;;;;;;4209949;28;20545;-57
2024/01/22 04:38:10;;;;;;;73.30;31.40;;;-8.50;99.90;;;;;;4209916;28;20031;-58
2024/01/22 04:40:13;;;;;;;71.30;31.52;;;-8.50;99.90;;;;;;4209481;28;20089;-60
2024/01/22 04:42:20;;;;;;;74.60;31.77;;;-8.50;99.90;;;;;;4209225;28;20047;-60
2024/01/22 04:44:21;;;;;;;75.63;33.47;;;-8.60;99.90;;;;;;4209652;28;20534;-61
2024/01/22 04:46:22;;;;;;;73.82;30.75;;;-8.60;99.90;;;;;;4209659;28;20350;-62
2024/01/22 04:48:24;;;;;;;75.03;31.33;;;-8.60;99.90;;;;;;4209420;28;20105;-60
2024/01/22 04:50:25;;;;;;;70.85;31.73;;;-8.60;99.90;;;;;;4209710;28;20498;-62
2024/01/22 04:52:26;;;;;;;76.60;33.38;;;-8.50;99.90;;;;;;4209485;28;20089;-61
2024/01/22 04:54:28;;;;;;;81.70;32.30;;;-8.50;99.90;;;;;;4209978;28;20036;-60
2024/01/22 04:56:29;;;;;;;73.57;31.92;;;-8.40;99.90;;;;;;4209128;28;20077;-57
2024/01/22 04:58:30;;;;;;;69.68;29.13;;;-8.40;99.90;;;;;;4209357;28;20039;-57
2024/01/22 05:00:32;;;;;;;69.85;30.60;;;-8.40;99.90;;;;;;4208740;28;20040;-60
2024/01/22 05:02:33;;;;;;;70.28;31.95;;;-8.40;99.90;;;;;;4209591;28;20118;-61
2024/01/22 05:04:34;;;;;;;74.72;32.97;;;-8.40;99.90;;;;;;4208714;28;20537;-59
2024/01/22 05:06:35;;;;;;;78.80;33.38;;;-8.50;99.90;;;;;;4209813;28;20069;-59
2024/01/22 05:08:36;;;;;;;69.68;32.22;;;-8.50;99.90;;;;;;4208680;28;20051;-62
2024/01/22 05:10:37;;;;;;;70.63;30.75;;;-8.50;99.90;;;;;;4209315;28;20032;-62
2024/01/22 05:12:39;;;;;;;87.72;34.42;;;-8.50;99.90;;;;;;4208936;28;20086;-60
2024/01/22 05:14:40;;;;;;;78.63;32.25;;;-8.50;99.90;;;;;;4208592;28;20040;-59
2024/01/22 05:16:41;;;;;;;77.28;34.03;;;-8.50;99.90;;;;;;4209184;28;20029;-59
2024/01/22 05:18:47;;;;;;;70.28;31.95;;;-8.40;99.90;;;;;;4208263;28;20040;-57
2024/01/22 05:20:48;;;;;;;77.00;33.45;;;-8.40;99.90;;;;;;4208469;28;20028;-61
2024/01/22 05:22:49;;;;;;;85.85;33.97;;;-8.30;99.90;;;;;;4208551;28;20048;-61
2024/01/22 05:24:51;;;;;;;82.32;31.08;;;-8.30;99.90;;;;;;4208901;28;20040;-59
2024/01/22 05:26:52;;;;;;;75.18;33.10;;;-8.30;99.90;;;;;;4208283;28;20070;-58
2024/01/22 05:28:53;;;;;;;72.07;30.20;;;-8.20;99.90;;;;;;4209386;28;20093;-57
2024/01/22 05:30:54;;;;;;;72.30;28.63;;;-8.30;99.90;;;;;;4208387;28;20036;-58
2024/01/22 05:32:55;;;;;;;80.90;31.58;;;-8.30;99.90;;;;;;4207305;28;20043;-61
2024/01/22 05:34:56;;;;;;;81.57;31.65;;;-8.30;99.90;;;;;;4207948;28;20093;-58
2024/01/22 05:36:57;;;;;;;69.55;30.63;;;-8.40;99.90;;;;;;4209376;28;20086;-59
2024/01/22 05:38:59;;;;;;;74.47;31.50;;;-8.30;99.90;;;;;;4208903;28;20024;-58
2024/01/22 05:41:00;;;;;;;74.30;31.65;;;-8.20;99.90;;;;;;4180946;28;20094;-59
2024/01/22 05:43:01;;;;;;;73.40;33.35;;;-8.30;99.90;;;;;;4194673;28;20094;-58
2024/01/22 05:45:02;;;;;;;70.32;32.38;;;-8.30;99.90;;;;;;4200188;28;20860;-59
2024/01/22 05:47:04;;;;;;;76.95;31.30;;;-8.40;99.90;;;;;;4209110;28;20032;-58
2024/01/22 05:49:05;;;;;;;75.35;31.60;;;-8.30;99.90;;;;;;4206707;28;20052;-58
2024/01/22 05:51:06;;;;;;;68.65;29.63;;;-8.30;99.90;;;;;;4209012;28;20040;-58
2024/01/22 05:53:08;;;;;;;85.72;36.35;;;-8.30;99.90;;;;;;4208957;28;20036;-60
2024/01/22 05:55:09;;;;;;;74.95;34.67;;;-8.30;99.90;;;;;;4209755;28;20054;-60
2024/01/22 05:57:10;;;;;;;93.15;35.83;;;-8.30;99.90;;;;;;4208405;28;20144;-57
2024/01/22 05:59:11;;;;;;;86.28;36.67;;;-8.30;99.90;;;;;;4208299;28;20032;-57
2024/01/22 06:01:23;;;;;;;94.47;41.42;;;-8.20;99.90;;;;;;4208860;28;20063;-64
2024/01/22 06:03:24;;;;;;;111.65;49.53;;;-8.20;99.90;;;;;;4209213;28;20078;-60
2024/01/22 06:05:26;;;;;;;100.75;44.10;;;-8.20;99.90;;;;;;4207165;28;20093;-65
2024/01/22 06:07:27;;;;;;;92.18;39.13;;;-8.20;99.90;;;;;;4209799;28;20473;-62
2024/01/22 06:09:29;;;;;;;88.55;38.75;;;-8.10;99.90;;;;;;4208711;28;20504;-61
2024/01/22 06:11:30;;;;;;;82.65;36.15;;;-8.10;99.90;;;;;;4211949;28;20370;-62
2024/01/22 06:13:31;;;;;;;85.70;36.08;;;-8.10;99.90;;;;;;4211233;28;20028;-63
2024/01/22 06:15:33;;;;;;;70.95;31.40;;;-8.00;99.90;;;;;;4211643;28;20093;-61
2024/01/22 06:17:34;;;;;;;71.13;29.73;;;-8.00;99.90;;;;;;4212204;28;20092;-59
2024/01/22 06:19:35;;;;;;;68.93;29.45;;;-7.90;99.90;;;;;;4212055;28;20024;-59
2024/01/22 06:21:37;;;;;;;60.08;27.13;;;-7.90;99.90;;;;;;4211567;28;20085;-59
2024/01/22 06:23:38;;;;;;;58.42;26.92;;;-7.90;99.90;;;;;;4211072;28;20082;-56
2024/01/22 06:25:39;;;;;;;65.68;27.08;;;-7.80;99.90;;;;;;4211944;28;20077;-58
2024/01/22 06:27:44;;;;;;;56.70;25.42;;;-7.80;99.90;;;;;;4210749;28;20020;-58
2024/01/22 06:29:45;;;;;;;63.20;25.77;;;-7.70;99.90;;;;;;4211380;28;20048;-58
2024/01/22 06:31:46;;;;;;;70.13;30.17;;;-7.60;99.90;;;;;;4210444;28;20036;-57
2024/01/22 06:33:47;;;;;;;75.38;32.10;;;-7.60;99.90;;;;;;4211623;28;20089;-61
2024/01/22 06:35:49;;;;;;;68.95;29.60;;;-7.40;99.90;;;;;;4210586;28;20429;-57
2024/01/22 06:37:50;;;;;;;71.20;30.92;;;-7.30;99.90;;;;;;4212338;28;20024;-61
2024/01/22 06:39:52;;;;;;;72.10;34.33;;;-7.10;99.90;;;;;;4210532;28;20081;-59
2024/01/22 06:41:53;;;;;;;78.43;34.38;;;-7.10;99.90;;;;;;4211311;28;20109;-59
2024/01/22 06:43:54;;;;;;;72.03;32.92;;;-6.90;99.90;;;;;;4210953;28;20044;-60
2024/01/22 06:45:56;;;;;;;70.05;32.88;;;-6.80;99.90;;;;;;4211075;28;20032;-59
2024/01/22 06:47:57;;;;;;;69.95;32.05;;;-6.60;99.90;;;;;;4211025;28;20049;-62
2024/01/22 06:49:58;;;;;;;64.20;30.20;;;-6.30;99.90;;;;;;4210747;28;20684;-60
2024/01/22 06:52:00;;;;;;;68.07;31.25;;;-6.00;99.90;;;;;;4211105;28;20097;-60
2024/01/22 06:54:01;;;;;;;60.92;29.30;;;-5.80;99.90;;;;;;4210509;28;20032;-62
2024/01/22 06:56:02;;;;;;;64.50;28.90;;;-5.60;99.90;;;;;;4210664;28;20048;-59
2024/01/22 06:58:04;;;;;;;60.80;28.33;;;-5.40;99.90;;;;;;4210472;28;20097;-61
2024/01/22 07:00:09;;;;;;;63.28;28.63;;;-5.20;99.90;;;;;;4211380;28;20027;-58
2024/01/22 07:02:10;;;;;;;57.30;26.93;;;-5.10;99.90;;;;;;4210368;28;20108;-60
2024/01/22 07:04:11;;;;;;;53.33;26.70;;;-4.90;99.90;;;;;;4211068;28;20253;-61
2024/01/22 07:06:12;;;;;;;59.30;28.87;;;-4.80;99.90;;;;;;4209159;28;20253;-61
2024/01/22 07:08:14;;;;;;;59.80;29.17;;;-5.00;99.90;;;;;;4211876;28;20276;-59
2024/01/22 07:10:15;;;;;;;75.13;31.90;;;-5.00;99.90;;;;;;4210365;28;20718;-60
2024/01/22 07:12:17;;;;;;;58.10;29.17;;;-5.00;99.90;;;;;;4211064;28;20273;-62
2024/01/22 07:14:18;;;;;;;66.30;30.77;;;-4.90;99.90;;;;;;4209993;28;20389;-61
2024/01/22 07:16:19;;;;;;;74.47;33.57;;;-4.80;99.90;;;;;;4210679;28;20269;-61
2024/01/22 07:18:20;;;;;;;70.77;33.37;;;-4.90;99.90;;;;;;4210192;28;20268;-61
2024/01/22 07:20:22;;;;;;;68.40;33.57;;;-4.80;99.90;;;;;;4210350;28;20341;-56
2024/01/22 07:22:23;;;;;;;72.30;35.43;;;-4.50;99.90;;;;;;4210299;28;20322;-60
2024/01/22 07:24:24;;;;;;;86.13;38.73;;;-4.40;99.90;;;;;;4210872;28;20268;-58
2024/01/22 07:26:25;;;;;;;80.97;37.73;;;-4.50;99.90;;;;;;4210070;28;20273;-60
2024/01/22 07:28:27;;;;;;;86.40;41.57;;;-4.70;99.90;;;;;;4210608;28;20334;-60
2024/01/22 07:30:28;;;;;;;86.43;39.10;;;-4.80;99.90;;;;;;4210635;28;20794;-57
2024/01/22 07:32:29;;;;;;;88.53;39.13;;;-4.90;99.90;;;;;;4210463;28;20253;-59
2024/01/22 07:34:30;;;;;;;78.80;36.97;;;-4.60;99.90;;;;;;4210940;28;20276;-60
2024/01/22 07:36:31;;;;;;;83.77;39.40;;;-4.60;99.90;;;;;;4210017;28;20287;-58
2024/01/22 07:38:33;;;;;;;85.07;41.13;;;-4.60;99.90;;;;;;4211187;28;20741;-60
2024/01/22 07:40:34;;;;;;;84.60;40.37;;;-4.50;99.90;;;;;;4209609;28;20861;-59
2024/01/22 07:42:37;;;;;;;79.77;37.67;;;-4.50;99.90;;;;;;4209993;28;20690;-58
2024/01/22 07:44:38;;;;;;;92.33;39.30;;;-4.40;99.90;;;;;;4210217;28;20276;-59
2024/01/22 07:46:39;;;;;;;81.33;38.57;;;-4.40;99.90;;;;;;4210371;28;20272;-57
2024/01/22 07:48:40;;;;;;;89.30;40.77;;;-4.40;99.90;;;;;;4209925;28;20265;-57
2024/01/22 07:50:41;;;;;;;76.20;37.10;;;-4.40;99.90;;;;;;4209921;28;20346;-56
2024/01/22 07:52:43;;;;;;;79.17;37.23;;;-4.30;99.90;;;;;;4210123;28;20314;-60
2024/01/22 07:54:44;;;;;;;75.33;35.47;;;-4.30;99.90;;;;;;4210186;28;20292;-60
2024/01/22 07:56:45;;;;;;;77.40;34.90;;;-4.10;99.90;;;;;;4208371;28;20987;-59
2024/01/22 07:58:46;;;;;;;76.73;35.93;;;-4.00;99.90;;;;;;4209805;28;20276;-58
2024/01/22 08:00:48;;;;;;;82.17;37.60;;;-3.70;99.90;;;;;;4210026;28;20257;-58
2024/01/22 08:02:49;;;;;;;71.33;33.90;;;-3.30;99.90;;;;;;4209869;28;20280;-60
2024/01/22 08:04:50;;;;;;;69.67;32.73;;;-3.00;99.90;;;;;;4210416;28;20346;-58
2024/01/22 08:06:51;;;;;;;73.17;32.63;;;-2.60;99.90;;;;;;4209837;28;20410;-62
2024/01/22 08:08:53;;;;;;;73.63;34.17;;;-2.40;99.90;;;;;;4209860;28;20273;-60
2024/01/22 08:10:54;;;;;;;68.93;32.10;;;-2.30;99.90;;;;;;4209613;28;20277;-59
2024/01/22 08:12:57;;;;;;;67.03;33.83;;;-2.30;99.90;;;;;;4209681;28;20311;-59
2024/01/22 08:14:58;;;;;;;76.60;35.57;;;-2.70;99.90;;;;;;4207976;28;20265;-58
2024/01/22 08:17:01;;;;;;;66.30;34.27;;;-2.90;99.90;;;;;;4210163;28;20318;-60
2024/01/22 08:19:03;;;;;;;74.40;34.80;;;-3.10;99.90;;;;;;4209147;28;20291;-58
2024/01/22 08:21:04;;;;;;;78.37;38.20;;;-3.00;99.90;;;;;;4209463;28;20276;-59
2024/01/22 08:23:06;;;;;;;72.97;35.87;;;-3.00;99.90;;;;;;4209959;28;20695;-59
2024/01/22 08:25:08;;;;;;;66.23;32.03;;;-2.60;99.90;;;;;;4209950;28;20306;-55
2024/01/22 08:27:09;;;;;;;71.30;35.67;;;-2.80;99.90;;;;;;4209551;28;20310;-56
2024/01/22 08:29:10;;;;;;;70.97;34.87;;;-3.20;99.90;;;;;;4208951;28;20635;-57
2024/01/22 08:31:11;;;;;;;69.37;34.63;;;-3.40;99.90;;;;;;4209825;28;20261;-62
2024/01/22 08:33:12;;;;;;;69.47;34.73;;;-3.60;99.90;;;;;;4208706;28;20252;-59
2024/01/22 08:35:14;;;;;;;73.80;33.53;;;-3.50;99.90;;;;;;4209958;28;20660;-58
2024/01/22 08:37:15;;;;;;;64.87;31.97;;;-3.50;99.90;;;;;;4191328;28;20824;-61
2024/01/22 08:39:16;;;;;;;59.23;29.33;;;-3.60;99.90;;;;;;4209978;28;20260;-61
2024/01/22 08:41:18;;;;;;;57.27;27.37;;;-3.60;99.90;;;;;;4208557;28;20261;-62
2024/01/22 08:43:19;;;;;;;55.73;27.97;;;-3.70;99.90;;;;;;4209429;28;20276;-59
2024/01/22 08:45:21;;;;;;;54.87;28.00;;;-3.50;99.90;;;;;;4209258;28;20310;-60
2024/01/22 08:47:23;;;;;;;53.13;25.87;;;-3.10;99.90;;;;;;4209791;28;20639;-61
2024/01/22 08:49:24;;;;;;;54.70;28.13;;;-2.90;99.90;;;;;;4209061;28;20683;-57
2024/01/22 08:51:25;;;;;;;60.43;28.20;;;-2.80;99.90;;;;;;4209513;28;20272;-56
2024/01/22 08:53:26;;;;;;;62.50;28.37;;;-2.50;99.90;;;;;;4209663;28;20274;-60
2024/01/22 08:55:27;;;;;;;57.20;28.40;;;-2.50;99.90;;;;;;4209448;28;20663;-59
2024/01/22 08:57:28;;;;;;;59.00;29.60;;;-2.40;99.90;;;;;;4209421;28;20281;-58
2024/01/22 08:59:29;;;;;;;61.07;26.70;;;-2.40;99.90;;;;;;4207783;28;21297;-59
2024/01/22 09:01:31;;;;;;;52.40;27.10;;;-2.30;99.90;;;;;;4209753;28;20273;-57
2024/01/22 09:03:32;;;;;;;60.97;30.33;;;-2.30;99.90;;;;;;4208939;28;20284;-60
2024/01/22 09:05:34;;;;;;;66.77;30.03;;;-2.50;99.90;;;;;;4209817;28;20334;-57
2024/01/22 09:07:36;;;;;;;56.27;28.50;;;-2.70;99.90;;;;;;4209659;28;21284;-58
2024/01/22 09:09:37;;;;;;;57.80;28.90;;;-2.50;99.90;;;;;;4209222;28;20671;-61
2024/01/22 09:11:38;;;;;;;53.53;26.37;;;-2.30;99.90;;;;;;4208506;28;20818;-59
2024/01/22 09:13:39;;;;;;;57.00;28.03;;;-2.30;99.90;;;;;;4209777;28;20318;-59
2024/01/22 09:15:40;;;;;;;57.60;27.90;;;-2.30;99.90;;;;;;4208756;28;20264;-58
2024/01/22 09:17:41;;;;;;;57.50;27.97;;;-2.10;99.90;;;;;;4209107;28;20268;-58
2024/01/22 09:19:42;;;;;;;65.57;29.63;;;-2.00;99.90;;;;;;4209373;28;20265;-59
2024/01/22 09:21:43;;;;;;;58.50;28.57;;;-2.10;99.90;;;;;;4209551;28;20405;-59
2024/01/22 09:23:44;;;;;;;57.43;29.90;;;-2.10;99.90;;;;;;4208809;28;20835;-59
2024/01/22 09:25:46;;;;;;;56.63;28.77;;;-2.10;99.90;;;;;;4209303;28;20578;-60
2024/01/22 09:27:49;;;;;;;51.87;27.37;;;-2.30;99.90;;;;;;4209297;28;20264;-59
2024/01/22 09:29:50;;;;;;;56.10;29.07;;;-2.40;99.90;;;;;;4209165;28;20341;-59
2024/01/22 09:31:51;;;;;;;57.70;29.63;;;-2.40;99.90;;;;;;4209012;28;20261;-58
2024/01/22 09:33:53;;;;;;;57.53;28.73;;;-2.50;99.90;;;;;;4208722;28;20310;-61
2024/01/22 09:35:55;;;;;;;60.43;29.63;;;-2.40;99.90;;;;;;4209405;28;20261;-60
2024/01/22 09:37:56;;;;;;;52.63;25.73;;;-2.20;99.90;;;;;;4208771;28;20655;-57
2024/01/22 09:39:57;;;;;;;57.03;26.10;;;-2.20;99.90;;;;;;4209083;28;20389;-61
2024/01/22 09:41:59;;;;;;;45.73;25.03;;;-2.10;99.90;;;;;;4208116;28;20838;-56
2024/01/22 09:44:00;;;;;;;52.77;26.73;;;-2.10;99.90;;;;;;4209835;28;20350;-59
2024/01/22 09:46:02;;;;;;;56.63;26.90;;;-2.00;99.90;;;;;;4211720;28;20326;-61
2024/01/22 09:48:04;;;;;;;53.50;26.03;;;-1.90;99.90;;;;;;4212391;28;20778;-57
2024/01/22 09:50:06;;;;;;;46.40;22.93;;;-1.80;99.90;;;;;;4211565;28;20293;-58
2024/01/22 09:52:14;;;;;;;47.37;24.70;;;-1.60;99.90;;;;;;4212400;28;20253;-57
2024/01/22 09:54:18;;;;;;;45.67;21.73;;;-1.60;99.90;;;;;;4212196;28;20273;-60
2024/01/22 09:56:20;;;;;;;45.70;20.53;;;-1.60;99.90;;;;;;4211792;28;20463;-58
2024/01/22 09:58:27;;;;;;;45.50;17.80;;;-1.50;99.90;;;;;;4211707;28;20326;-53
2024/01/22 10:00:29;;;;;;;41.47;19.30;;;-1.30;99.90;;;;;;4212027;28;20298;-57
2024/01/22 10:02:30;;;;;;;25.07;13.40;;;-1.20;99.90;;;;;;4193746;28;20281;-58
2024/01/22 10:04:32;;;;;;;24.67;13.83;;;-0.90;99.90;;;;;;4212069;28;20326;-58
2024/01/22 10:06:36;;;;;;;26.70;14.00;;;-0.80;99.90;;;;;;4212075;28;20276;-57
2024/01/22 10:08:37;;;;;;;24.33;11.87;;;-0.60;99.90;;;;;;4212174;28;20318;-57
2024/01/22 10:10:39;;;;;;;27.53;12.03;;;-0.50;99.90;;;;;;4211946;28;20647;-60
2024/01/22 10:13:14;;;;;;;27.47;11.90;;;-0.60;99.90;;;;;;4211445;28;20648;-61
2024/01/22 10:15:15;;;;;;;23.53;11.17;;;-0.50;99.90;;;;;;4167324;28;20318;-58